Vancouver International Airport
CYVR : rendu visible

Aérodrome :











RETROUVEZ-NOUS SUR...

 
LOGIN :

S'inscrire | Disclaimer

   EN    FR    IT 

 









Légende :    VFR   VFR Marginal   IFR   IFR Intensif   IFR Très Intensif
Visi : 
Plafond : 
>= 8 km
>= 3000ft
5 à 8 km
1000 à 3000 ft
1500m à 5 km
500 à 1000 ft
800 à 1500m
200 à 500 ft
< 800m
< 200 ft
Symboles :   Orages  Brouillard  Fortes neiges  Fortes précipitations  Vent > 20 kt






- Altitude de l'aérodrome : 14 ft
- Code IATA : YVR


CYVR - Vancouver International

DERNIER METAR :
  • 311000Z 04002KT 20SM FEW100 04/03 A3035 RMK AC1 AC TR SLP279

METARs EXPIRÉS :
  • 310900Z 06004KT 330V080 20SM SKC 06/04 A3033 RMK SLP272
  • 310800Z 09004KT 20SM FEW020 05/04 A3031 RMK SC1 SC TR SLP265

TAF TAF CYVR
Valide du 31 à 09h jusqu'au 01 à 12h UTC


310838Z 3109/0112 09005KT P6SM SCT020
TEMPO 3109/3117 BKN020
FM311700 08006KT P6SM FEW020 SCT100
BECMG 3119/3121 31006KT
FM312100 31008KT P6SM FEW020 RMK NXT FCST BY 311200Z
FIR CZVR / Amérique du Nord



MET'MAP, la Météo Aéronautique d'un coup d'oeil ! - Copyright ORBIFLY Décembre 2007 - Disclaimer

ORBIFLY MET'MAP TEAM :

Programmation & Développement : Alexandra Zaïnal
Sur une idée originale de : Baudouin d'Aumeries
Assistance à la programmation : Marc-Olivier Méhu
Soutien technique & logistique : Manuel Goepfert

Contact : metmap@orbifly.com




SOURCES & CREDITS :

   NOAA       Earth
Advisory